Time;durP1;ratioP1;P1;durP2;ratioP2;P2;SDS_P1;SDS_P2;PMS_P1;PMS_P2;Temp;Humidity;BMP_temperature;BMP_pressure;BME280_temperature;BME280_humidity;BME280_pressure;Samples;Min_cycle;Max_cycle;Signal;HPM_P1;HPM_P2
2021/04/22 00:01:54;;;;;;;3.97;0.60;;;;;;;13.89;53.45;100758.34;4903804;28;97841;-61
2021/04/22 00:04:20;;;;;;;3.55;0.52;;;;;;;13.84;53.70;100756.50;4903598;28;98628;-61
2021/04/22 00:06:49;;;;;;;5.38;0.60;;;;;;;13.82;53.24;100764.06;4904005;28;99235;-59
2021/04/22 00:09:15;;;;;;;3.45;0.60;;;;;;;13.80;53.22;100768.97;4902790;28;98618;-59
2021/04/22 00:11:41;;;;;;;3.38;0.60;;;;;;;13.77;53.33;100760.59;4903444;28;117593;-59
2021/04/22 00:14:07;;;;;;;3.67;0.60;;;;;;;13.71;53.31;100770.66;4903797;28;98093;-61
2021/04/22 00:16:33;;;;;;;3.88;0.68;;;;;;;13.68;53.25;100768.53;4901847;28;126031;-59
2021/04/22 00:19:00;;;;;;;4.13;0.70;;;;;;;13.66;52.99;100768.78;4899463;28;126716;-61
2021/04/22 00:21:26;;;;;;;4.32;0.70;;;;;;;13.63;53.40;100772.03;4901983;28;97993;-61
2021/04/22 00:23:52;;;;;;;4.18;0.60;;;;;;;13.63;53.40;100774.75;4902667;28;127900;-61
2021/04/22 00:26:18;;;;;;;3.20;0.50;;;;;;;13.59;53.38;100776.41;4902888;28;118366;-62
2021/04/22 00:28:44;;;;;;;4.53;0.70;;;;;;;13.59;53.43;100783.72;4901783;28;112246;-59
2021/04/22 00:31:10;;;;;;;4.03;0.50;;;;;;;13.56;53.38;100787.81;4916936;28;116632;-61
2021/04/22 00:33:36;;;;;;;4.15;0.40;;;;;;;13.56;53.63;100787.81;4902522;28;127793;-59
2021/04/22 00:36:02;;;;;;;3.35;0.60;;;;;;;13.51;53.48;100794.06;4916856;28;128084;-61
2021/04/22 00:38:28;;;;;;;5.32;0.52;;;;;;;13.49;53.45;100801.66;4916551;28;98602;-61
2021/04/22 00:40:55;;;;;;;4.30;0.50;;;;;;;13.49;53.62;100800.84;4902378;28;117134;-62
2021/04/22 00:43:21;;;;;;;7.07;0.63;;;;;;;13.43;53.45;100805.47;4902208;28;129049;-62
2021/04/22 00:45:47;;;;;;;3.33;0.43;;;;;;;13.42;53.60;100803.06;4903624;28;103193;-61
2021/04/22 00:48:16;;;;;;;3.28;0.60;;;;;;;13.43;53.52;100805.47;4902527;28;97812;-59
2021/04/22 00:50:42;;;;;;;4.20;0.63;;;;;;;13.37;53.66;100806.59;4902861;28;97870;-61
2021/04/22 00:53:09;;;;;;;3.42;0.50;;;;;;;13.36;53.53;100821.22;4903137;28;99084;-59
2021/04/22 00:55:35;;;;;;;4.65;0.57;;;;;;;13.34;53.38;100817.16;4902622;28;98444;-61
2021/04/22 00:58:01;;;;;;;5.88;0.50;;;;;;;13.28;53.79;100819.06;4902630;28;108877;-59
2021/04/22 01:00:41;;;;;;;5.90;0.90;;;;;;;13.25;53.60;100819.66;4902774;28;97919;-61
2021/04/22 01:03:08;;;;;;;3.35;0.43;;;;;;;13.23;53.69;100821.81;4902135;28;98504;-59
2021/04/22 01:05:58;;;;;;;7.07;0.60;;;;;;;13.21;53.61;100832.88;4902491;28;106866;-59
2021/04/22 01:08:24;;;;;;;4.60;0.75;;;;;;;13.19;53.66;100835.03;4902173;28;97838;-61
2021/04/22 01:10:50;;;;;;;5.25;0.77;;;;;;;13.17;53.72;100836.41;4901730;28;118661;-59
2021/04/22 01:13:17;;;;;;;4.18;0.80;;;;;;;13.13;53.75;100833.47;4902918;28;98405;-61
2021/04/22 01:15:43;;;;;;;4.50;0.70;;;;;;;13.10;53.75;100836.72;4916322;28;100761;-59
2021/04/22 01:18:09;;;;;;;3.08;0.70;;;;;;;13.07;53.96;100837.25;4902927;28;98675;-61
2021/04/22 01:20:41;;;;;;;6.20;0.60;;;;;;;13.06;53.81;100843.75;4902754;28;97747;-61
2021/04/22 01:23:08;;;;;;;5.40;0.90;;;;;;;13.02;53.89;100846.19;4902495;28;98347;-59
2021/04/22 01:25:36;;;;;;;5.40;0.65;;;;;;;13.00;53.71;100848.34;4902913;28;98391;-61
2021/04/22 01:28:07;;;;;;;5.82;0.98;;;;;;;12.98;53.97;100839.72;4901370;28;97922;-59
2021/04/22 01:30:37;;;;;;;4.53;0.70;;;;;;;12.92;53.80;100840.78;4916879;28;98604;-59
2021/04/22 01:33:05;;;;;;;4.97;0.68;;;;;;;12.91;53.82;100857.31;4902095;28;103587;-61
2021/04/22 01:35:40;;;;;;;5.40;0.73;;;;;;;12.91;53.96;100851.91;4902246;28;98051;-61
2021/04/22 01:38:07;;;;;;;5.80;0.70;;;;;;;12.87;53.94;100862.44;4902648;28;101369;-59
2021/04/22 01:40:33;;;;;;;5.05;0.90;;;;;;;12.83;53.80;100857.88;4902165;28;98214;-61
2021/04/22 01:42:59;;;;;;;6.65;0.90;;;;;;;12.80;53.97;100855.69;4899757;28;118731;-59
2021/04/22 01:45:25;;;;;;;5.57;0.68;;;;;;;12.79;53.96;100854.88;4899472;28;127625;-61
2021/04/22 01:47:53;;;;;;;3.70;0.80;;;;;;;12.76;53.73;100858.94;4902309;28;98024;-61
2021/04/22 01:50:26;;;;;;;4.68;0.90;;;;;;;12.70;54.19;100859.25;4902194;28;98032;-61
2021/04/22 01:52:53;;;;;;;7.63;1.25;;;;;;;12.69;53.92;100866.53;4902261;28;114686;-62
2021/04/22 01:55:31;;;;;;;5.80;0.82;;;;;;;12.67;54.16;100851.66;4901686;28;99005;-59
2021/04/22 01:57:58;;;;;;;6.90;0.93;;;;;;;12.64;54.21;100860.31;4901166;28;98388;-59
2021/04/22 02:00:30;;;;;;;5.07;0.73;;;;;;;12.62;54.06;100855.19;4902362;28;98095;-59
2021/04/22 02:02:56;;;;;;;6.53;0.80;;;;;;;12.61;53.70;100866.25;4901667;28;98665;-61
2021/04/22 02:05:22;;;;;;;5.00;1.00;;;;;;;12.56;54.15;100863.56;4900992;28;125848;-61
2021/04/22 02:07:49;;;;;;;5.13;1.00;;;;;;;12.57;53.79;100863.28;4901782;28;106177;-61
2021/04/22 02:10:15;;;;;;;8.13;1.00;;;;;;;12.56;54.02;100858.16;4901644;28;102658;-61
2021/04/22 02:12:41;;;;;;;6.30;0.90;;;;;;;12.53;54.05;100862.19;4901270;28;98107;-62
2021/04/22 02:15:11;;;;;;;5.78;0.73;;;;;;;12.52;53.90;100857.88;4900739;28;120725;-62
2021/04/22 02:17:37;;;;;;;4.55;0.90;;;;;;;12.57;53.60;100860.56;4902149;28;98642;-61
2021/04/22 02:20:09;;;;;;;7.55;0.90;;;;;;;12.63;53.68;100864.91;4901358;28;97701;-59
2021/04/22 02:22:35;;;;;;;4.68;0.80;;;;;;;12.67;53.68;100871.41;4900999;28;106129;-59
2021/04/22 02:25:01;;;;;;;5.72;1.02;;;;;;;12.64;53.26;100869.22;4901142;28;115654;-59
2021/04/22 02:27:27;;;;;;;5.57;1.00;;;;;;;12.69;52.95;100874.66;4901090;28;113569;-61
2021/04/22 02:29:53;;;;;;;6.43;0.80;;;;;;;12.68;53.00;100874.91;4900736;28;117020;-61
2021/04/22 02:32:19;;;;;;;6.07;0.90;;;;;;;12.63;53.12;100874.94;4900195;28;128006;-59
2021/04/22 02:34:45;;;;;;;6.55;1.00;;;;;;;12.61;53.25;100867.06;4884175;28;98802;-60
2021/04/22 02:37:11;;;;;;;5.45;0.80;;;;;;;12.59;53.14;100868.44;4900897;28;126664;-59
2021/04/22 02:39:37;;;;;;;5.00;0.77;;;;;;;12.53;53.11;100867.59;4902734;28;117000;-61
2021/04/22 02:42:04;;;;;;;6.18;0.90;;;;;;;12.50;53.33;100865.47;4903223;28;98513;-59
2021/04/22 02:44:30;;;;;;;6.03;0.73;;;;;;;12.44;53.20;100867.34;4903616;28;115549;-59
2021/04/22 02:46:56;;;;;;;5.75;0.90;;;;;;;12.43;52.93;100870.31;4904950;28;98416;-61
2021/04/22 02:49:22;;;;;;;5.68;0.90;;;;;;;12.43;53.34;100871.13;4904089;28;116843;-62
2021/04/22 02:51:48;;;;;;;6.78;0.93;;;;;;;12.42;52.96;100868.72;4903913;28;126789;-61
2021/04/22 02:54:14;;;;;;;5.07;0.80;;;;;;;12.40;53.01;100876.25;4904028;28;127555;-61
2021/04/22 02:56:40;;;;;;;6.47;1.02;;;;;;;12.32;53.00;100877.59;4904553;28;127498;-59
2021/04/22 02:59:06;;;;;;;7.38;0.90;;;;;;;12.27;53.55;100874.91;4907284;28;116177;-59
2021/04/22 03:01:32;;;;;;;6.22;0.95;;;;;;;12.27;53.40;100875.72;4902164;28;127817;-59
2021/04/22 03:03:58;;;;;;;7.80;1.02;;;;;;;12.27;53.51;100880.31;4904401;28;105460;-59
2021/04/22 03:06:24;;;;;;;5.63;0.80;;;;;;;12.20;53.37;100874.34;4903640;28;126269;-59
2021/04/22 03:08:50;;;;;;;6.95;0.98;;;;;;;12.19;53.22;100884.34;4904034;28;118459;-61
2021/04/22 03:11:16;;;;;;;6.05;1.10;;;;;;;12.14;53.26;100878.13;4904134;28;107387;-59
2021/04/22 03:13:43;;;;;;;5.03;0.95;;;;;;;12.13;53.46;100871.09;4904927;28;98647;-61
2021/04/22 03:16:09;;;;;;;7.20;0.95;;;;;;;12.07;53.45;100872.19;4904999;28;97887;-59
2021/04/22 03:18:35;;;;;;;6.95;1.10;;;;;;;12.03;53.75;100874.59;4904639;28;97984;-59
2021/04/22 03:21:01;;;;;;;5.60;1.00;;;;;;;12.04;53.69;100878.91;4903874;28;98656;-61
2021/04/22 03:23:27;;;;;;;6.50;1.35;;;;;;;11.97;53.96;100876.47;4917754;28;122044;-59
2021/04/22 03:25:53;;;;;;;6.78;1.30;;;;;;;11.97;53.96;100875.66;4917086;28;126109;-61
2021/04/22 03:28:19;;;;;;;6.10;1.02;;;;;;;11.90;54.11;100878.59;4903606;28;117737;-58
2021/04/22 03:30:45;;;;;;;5.05;0.80;;;;;;;11.89;53.50;100884.28;4902439;28;98842;-59
2021/04/22 03:33:12;;;;;;;6.40;1.00;;;;;;;11.84;53.68;100878.88;4903395;28;128001;-61
2021/04/22 03:35:38;;;;;;;8.05;1.08;;;;;;;11.84;53.60;100893.19;4903657;28;98486;-59
2021/04/22 03:38:04;;;;;;;5.95;1.00;;;;;;;11.83;53.71;100888.88;4903134;28;119899;-61
2021/04/22 03:40:30;;;;;;;5.88;1.00;;;;;;;11.79;53.86;100893.94;4903695;28;99081;-61
2021/04/22 03:42:56;;;;;;;6.90;1.05;;;;;;;11.79;53.71;100899.34;4903918;28;99123;-59
2021/04/22 03:45:23;;;;;;;6.15;0.90;;;;;;;11.75;53.97;100895.56;4903154;28;127683;-59
2021/04/22 03:47:50;;;;;;;10.18;1.25;;;;;;;11.71;54.09;100902.56;4918747;28;97908;-59
2021/04/22 03:50:17;;;;;;;8.02;1.38;;;;;;;11.66;54.15;100905.22;4900808;28;127940;-61
2021/04/22 03:52:43;;;;;;;4.80;1.10;;;;;;;11.67;53.94;100904.16;4904590;28;98273;-61
2021/04/22 03:55:10;;;;;;;6.63;1.35;;;;;;;11.63;54.39;100908.47;4903060;28;98269;-61
2021/04/22 03:57:36;;;;;;;6.30;1.33;;;;;;;11.65;53.85;100905.50;4905005;28;98233;-58
2021/04/22 04:00:06;;;;;;;7.95;1.35;;;;;;;11.62;53.95;100906.03;4903205;28;98557;-59
2021/04/22 04:02:32;;;;;;;8.48;1.70;;;;;;;11.64;53.86;100909.28;4903502;28;98806;-59
2021/04/22 04:04:58;;;;;;;6.38;1.42;;;;;;;11.64;53.83;100910.09;4903392;28;98773;-59
2021/04/22 04:07:24;;;;;;;8.15;1.67;;;;;;;11.63;54.30;100915.72;4902521;28;118419;-59
2021/04/22 04:09:50;;;;;;;8.88;1.55;;;;;;;11.63;53.89;100923.84;4902702;28;128242;-59
2021/04/22 04:12:17;;;;;;;7.38;1.40;;;;;;;11.60;53.75;100919.78;4903591;28;98684;-61
2021/04/22 04:14:43;;;;;;;6.68;1.33;;;;;;;11.59;53.80;100920.84;4901109;28;129122;-61
2021/04/22 04:17:09;;;;;;;7.40;1.67;;;;;;;11.59;53.80;100920.84;4903150;28;106683;-59
2021/04/22 04:19:35;;;;;;;9.10;1.77;;;;;;;11.59;53.72;100925.44;4916077;28;128307;-61
2021/04/22 04:22:01;;;;;;;6.80;1.77;;;;;;;11.58;54.33;100919.22;4902247;28;127843;-61
2021/04/22 04:24:27;;;;;;;8.52;1.80;;;;;;;11.59;54.26;100928.13;4902188;28;118445;-61
2021/04/22 04:26:53;;;;;;;7.43;1.73;;;;;;;11.60;53.74;100919.78;4903234;28;110963;-59
2021/04/22 04:29:19;;;;;;;8.90;1.77;;;;;;;11.61;53.89;100924.13;4900660;28;128517;-61
2021/04/22 04:31:45;;;;;;;8.52;2.15;;;;;;;11.58;53.85;100924.63;4884377;28;127335;-59
2021/04/22 04:34:11;;;;;;;8.43;1.90;;;;;;;11.61;53.83;100937.63;4902018;28;126853;-59
2021/04/22 04:36:43;;;;;;;8.90;2.45;;;;;;;11.63;53.75;100931.94;4902762;28;117116;-60
2021/04/22 04:39:10;;;;;;;8.40;2.13;;;;;;;11.65;54.04;100937.91;4901596;28;98768;-59
2021/04/22 04:41:36;;;;;;;10.05;2.00;;;;;;;11.71;54.03;100937.66;4903392;28;104573;-59
2021/04/22 04:44:02;;;;;;;6.65;1.77;;;;;;;11.70;53.66;100944.13;4902650;28;109122;-61
2021/04/22 04:46:31;;;;;;;11.63;2.47;;;;;;;11.77;53.71;100936.59;4902549;28;97869;-59
2021/04/22 04:48:57;;;;;;;10.10;2.10;;;;;;;11.83;54.12;100939.31;4903053;28;98646;-61
2021/04/22 04:51:23;;;;;;;8.38;2.00;;;;;;;11.87;53.73;100935.88;4901718;28;123627;-59
2021/04/22 04:53:51;;;;;;;9.18;2.10;;;;;;;11.91;53.64;100945.06;4903321;28;101863;-61
2021/04/22 04:56:18;;;;;;;8.82;2.33;;;;;;;11.95;53.97;100950.75;4902963;28;98083;-59
2021/04/22 04:58:45;;;;;;;7.70;2.17;;;;;;;11.99;53.67;100952.66;4902888;28;99544;-59
2021/04/22 05:01:12;;;;;;;6.97;1.80;;;;;;;12.01;53.83;100958.59;4901779;28;98560;-61
2021/04/22 05:03:38;;;;;;;5.43;1.77;;;;;;;12.04;53.86;100958.09;4902435;28;97918;-62
2021/04/22 05:06:05;;;;;;;9.40;2.00;;;;;;;12.10;53.94;100956.19;4902754;28;97710;-59
2021/04/22 05:08:31;;;;;;;7.72;1.70;;;;;;;12.14;53.74;100960.00;4901948;28;118992;-59
2021/04/22 05:10:58;;;;;;;10.40;2.10;;;;;;;12.19;53.34;100960.03;4901962;28;120689;-59
2021/04/22 05:13:24;;;;;;;6.63;1.65;;;;;;;12.24;53.49;100964.63;4902078;28;114463;-62
2021/04/22 05:15:50;;;;;;;8.32;2.00;;;;;;;12.28;53.60;100958.41;4902711;28;97942;-59
2021/04/22 05:18:16;;;;;;;11.45;2.25;;;;;;;12.35;53.74;100969.00;4902095;28;128400;-59
2021/04/22 05:20:42;;;;;;;8.07;1.88;;;;;;;12.44;53.30;100961.16;4901303;28;128621;-59
2021/04/22 05:23:08;;;;;;;7.47;1.77;;;;;;;12.48;53.07;100964.94;4901546;28;128224;-59
2021/04/22 05:25:34;;;;;;;7.40;1.60;;;;;;;12.65;53.18;100978.22;4901646;28;117685;-60
2021/04/22 05:28:00;;;;;;;8.93;2.03;;;;;;;12.75;52.68;100968.22;4915829;28;127370;-61
2021/04/22 05:30:26;;;;;;;7.47;1.88;;;;;;;12.82;52.85;100973.38;4915525;28;123906;-61
2021/04/22 05:32:53;;;;;;;8.18;1.98;;;;;;;12.90;52.99;100975.56;4899410;28;127277;-59
2021/04/22 05:35:19;;;;;;;7.90;1.75;;;;;;;13.01;53.04;100971.75;4900034;28;103999;-59
2021/04/22 05:37:45;;;;;;;8.57;1.85;;;;;;;13.09;52.46;100967.72;4901301;28;125204;-62
2021/04/22 05:40:12;;;;;;;9.00;1.80;;;;;;;13.14;52.39;100973.09;4901390;28;110788;-60
2021/04/22 05:42:38;;;;;;;8.43;1.70;;;;;;;13.29;52.49;100975.03;4901941;28;114415;-59
2021/04/22 05:45:05;;;;;;;8.82;1.63;;;;;;;13.53;51.99;100979.84;4902415;28;98043;-62
2021/04/22 05:47:31;;;;;;;7.53;2.15;;;;;;;13.73;51.67;100977.09;4901362;28;114409;-62
2021/04/22 05:49:57;;;;;;;7.40;1.92;;;;;;;13.66;51.95;100984.69;4915368;28;127617;-61
2021/04/22 05:52:24;;;;;;;9.07;2.10;;;;;;;13.86;51.69;100976.47;4900451;28;98129;-61
2021/04/22 05:54:50;;;;;;;7.80;2.13;;;;;;;13.97;51.58;100969.94;4916891;28;101729;-59
2021/04/22 05:57:16;;;;;;;9.43;2.00;;;;;;;14.17;51.40;100979.06;4900847;28;128126;-62
2021/04/22 05:59:42;;;;;;;9.30;2.15;;;;;;;14.29;51.33;100976.03;4899995;28;98165;-60
2021/04/22 06:02:08;;;;;;;9.23;2.03;;;;;;;14.51;50.75;100978.38;4900717;28;127940;-62
2021/04/22 06:04:34;;;;;;;8.90;2.15;;;;;;;14.79;49.89;100983.06;4901333;28;117910;-60
2021/04/22 06:07:00;;;;;;;9.98;1.98;;;;;;;15.03;49.15;100983.13;4901530;28;127933;-60
2021/04/22 06:09:26;;;;;;;9.40;2.20;;;;;;;15.49;48.66;100971.84;4898855;28;128038;-60
2021/04/22 06:11:52;;;;;;;9.25;2.03;;;;;;;15.84;48.00;100957.09;4899981;28;98246;-60
2021/04/22 06:14:18;;;;;;;9.00;2.08;;;;;;;16.19;47.12;100966.69;4902560;28;97846;-62
2021/04/22 06:16:44;;;;;;;8.60;1.98;;;;;;;16.41;46.54;100966.09;4870270;28;131017;-60
2021/04/22 06:19:14;;;;;;;9.13;2.22;;;;;;;17.00;44.89;100968.50;4903879;28;104646;-60
2021/04/22 06:21:40;;;;;;;6.07;1.73;;;;;;;16.93;45.14;100966.94;4903269;28;97960;-60
2021/04/22 06:24:06;;;;;;;10.15;2.20;;;;;;;16.91;45.68;100963.72;4895577;28;118129;-62
2021/04/22 06:26:32;;;;;;;5.18;1.67;;;;;;;16.86;44.79;100973.91;4903932;28;112937;-62
2021/04/22 06:29:01;;;;;;;11.00;2.28;;;;;;;16.87;45.74;100967.34;4905190;28;109051;-62
2021/04/22 06:31:28;;;;;;;9.05;2.10;;;;;;;16.77;47.05;100973.75;4904966;28;97928;-61
2021/04/22 06:33:54;;;;;;;7.65;2.15;;;;;;;16.51;47.90;100978.75;4904849;28;97979;-62
2021/04/22 06:36:21;;;;;;;8.45;2.00;;;;;;;16.32;47.63;100983.38;4903616;28;126427;-59
2021/04/22 06:38:47;;;;;;;6.57;1.90;;;;;;;16.25;48.44;100978.31;4905338;28;97799;-60
2021/04/22 06:41:13;;;;;;;8.07;1.98;;;;;;;16.21;48.74;100988.16;4918848;28;98728;-59
2021/04/22 06:43:39;;;;;;;7.47;1.60;;;;;;;16.33;48.53;100979.56;4905814;28;103619;-62
2021/04/22 06:46:05;;;;;;;7.97;2.00;;;;;;;16.34;48.41;100981.97;4903403;28;128416;-60
2021/04/22 06:48:31;;;;;;;7.43;1.70;;;;;;;16.37;48.24;100995.00;4904154;28;128462;-60
2021/04/22 06:50:57;;;;;;;6.35;1.95;;;;;;;16.49;47.85;100994.56;4906652;28;98752;-62
2021/04/22 06:53:23;;;;;;;8.52;2.28;;;;;;;16.65;47.12;100986.97;4904691;28;118819;-59
2021/04/22 06:55:49;;;;;;;6.88;2.20;;;;;;;16.94;46.20;100986.84;4904711;28;98385;-60
2021/04/22 06:58:15;;;;;;;6.40;1.73;;;;;;;17.07;44.65;100991.50;4904580;28;100065;-60
2021/04/22 07:00:44;;;;;;;5.80;1.83;;;;;;;17.10;44.31;100990.94;4904273;28;109622;-60
2021/04/22 07:03:10;;;;;;;9.63;2.05;;;;;;;17.47;44.02;100988.38;4905294;28;97860;-60
2021/04/22 07:05:36;;;;;;;7.93;2.10;;;;;;;17.50;43.63;100987.78;4903806;28;98746;-62
2021/04/22 07:08:04;;;;;;;8.18;1.80;;;;;;;17.46;43.82;100992.22;4889697;28;98999;-60
2021/04/22 07:10:30;;;;;;;7.22;1.75;;;;;;;17.50;43.46;100988.59;4903179;28;112647;-62
2021/04/22 07:12:56;;;;;;;6.15;1.80;;;;;;;18.40;42.47;100995.22;4882271;28;118874;-60
2021/04/22 07:15:22;;;;;;;6.00;1.70;;;;;;;18.31;41.08;100988.88;4884072;28;98311;-60
2021/04/22 07:17:48;;;;;;;4.85;1.48;;;;;;;18.73;41.23;100995.03;4885612;28;98535;-62
2021/04/22 07:20:20;;;;;;;6.07;1.80;;;;;;;19.17;42.36;100992.63;4881566;28;117480;-62
2021/04/22 07:22:46;;;;;;;7.27;2.07;;;;;;;18.76;40.39;100996.38;4902338;28;97964;-62
2021/04/22 07:25:13;;;;;;;6.07;1.52;;;;;;;18.63;41.45;100998.00;4901919;28;109676;-62
2021/04/22 07:27:40;;;;;;;7.75;1.88;;;;;;;18.79;43.23;101003.94;4902705;28;98446;-60
2021/04/22 07:30:07;;;;;;;8.23;1.85;;;;;;;18.48;41.54;101006.53;4918157;28;97852;-62
2021/04/22 07:32:33;;;;;;;6.90;1.67;;;;;;;18.18;42.43;101013.44;4918964;28;97805;-63
2021/04/22 07:35:00;;;;;;;6.88;2.10;;;;;;;18.05;42.63;101007.72;4903191;28;109216;-62
2021/04/22 07:37:26;;;;;;;6.45;1.83;;;;;;;18.30;42.18;100997.38;4903011;28;116739;-60
2021/04/22 07:39:52;;;;;;;5.50;1.85;;;;;;;18.64;43.11;100992.22;4903470;28;98322;-60
2021/04/22 07:42:18;;;;;;;6.53;1.75;;;;;;;18.64;43.07;101003.16;4903997;28;98177;-62
2021/04/22 07:44:47;;;;;;;7.57;1.90;;;;;;;18.54;42.15;100997.09;4902991;28;127853;-62
2021/04/22 07:47:15;;;;;;;6.90;1.73;;;;;;;18.68;42.63;101002.53;4904243;28;97939;-62
2021/04/22 07:49:42;;;;;;;7.53;2.10;;;;;;;18.20;42.20;101000.31;4903102;28;97837;-60
2021/04/22 07:52:09;;;;;;;5.28;1.70;;;;;;;18.03;43.08;101007.19;4904305;28;97976;-62
2021/04/22 07:54:35;;;;;;;7.80;2.17;;;;;;;17.75;43.87;101013.75;4903523;28;98655;-60
2021/04/22 07:57:01;;;;;;;5.38;1.63;;;;;;;17.54;44.07;101005.94;4903472;28;115366;-59
2021/04/22 07:59:27;;;;;;;8.00;1.90;;;;;;;17.37;44.07;101019.31;4902995;28;102842;-59
2021/04/22 08:01:53;;;;;;;7.50;1.90;;;;;;;17.09;45.34;101008.34;4903320;28;116848;-62
2021/04/22 08:04:19;;;;;;;6.85;2.05;;;;;;;16.98;45.75;101019.72;4902604;28;127858;-60
2021/04/22 08:06:45;;;;;;;6.70;1.80;;;;;;;20.05;39.69;101004.47;4899725;28;128123;-60
2021/04/22 08:09:11;;;;;;;6.65;1.70;;;;;;;19.64;41.85;101014.91;4903434;28;100469;-60
2021/04/22 08:11:37;;;;;;;5.88;1.58;;;;;;;19.45;41.99;101013.19;4903267;28;106848;-60
2021/04/22 08:14:03;;;;;;;5.93;1.73;;;;;;;19.12;41.93;101021.69;4903221;28;109896;-60
2021/04/22 08:16:29;;;;;;;6.18;1.75;;;;;;;18.89;41.84;101022.78;4902870;28;99149;-62
2021/04/22 08:18:56;;;;;;;7.53;1.73;;;;;;;18.65;42.02;101017.59;4902588;28;126860;-60
2021/04/22 08:21:23;;;;;;;5.32;1.75;;;;;;;19.12;41.22;101021.69;4904148;28;97995;-62
2021/04/22 08:23:49;;;;;;;6.85;1.60;;;;;;;18.73;41.52;101021.53;4902376;28;109545;-60
2021/04/22 08:26:18;;;;;;;6.18;1.55;;;;;;;18.46;41.84;101036.84;4903415;28;98488;-62
2021/04/22 08:28:47;;;;;;;4.50;1.60;;;;;;;21.22;38.75;101016.44;4903267;28;97937;-60
2021/04/22 08:31:26;;;;;;;5.30;1.85;;;;;;;24.37;34.54;101009.63;4903211;28;98383;-63
2021/04/22 08:33:58;;;;;;;6.32;1.48;;;;;;;23.72;36.00;101006.78;4903305;28;98309;-60
2021/04/22 08:36:24;;;;;;;5.10;1.55;;;;;;;22.66;39.30;101026.59;4916522;28;100805;-60
2021/04/22 08:38:51;;;;;;;5.18;1.90;;;;;;;22.50;39.20;101018.16;4903219;28;98370;-63
2021/04/22 08:41:17;;;;;;;4.35;1.40;;;;;;;22.34;40.14;101019.06;4903136;28;97730;-62
2021/04/22 08:43:43;;;;;;;5.22;1.65;;;;;;;23.08;37.90;101021.09;4901712;28;98196;-62
2021/04/22 08:46:09;;;;;;;5.47;1.50;;;;;;;22.32;39.61;101019.41;4902622;28;99154;-60
2021/04/22 08:48:41;;;;;;;5.22;1.42;;;;;;;21.72;39.81;101024.03;4902683;28;114879;-60
2021/04/22 08:51:08;;;;;;;3.95;1.48;;;;;;;21.29;40.08;101032.38;4903185;28;98236;-60
2021/04/22 08:53:36;;;;;;;4.57;1.55;;;;;;;21.26;39.21;101035.75;4902503;28;121349;-60
2021/04/22 08:56:03;;;;;;;4.78;1.63;;;;;;;21.91;39.60;101036.56;4902742;28;98203;-60
2021/04/22 08:58:29;;;;;;;5.72;1.60;;;;;;;24.67;35.84;101025.84;4915928;28;111245;-61
2021/04/22 09:01:05;;;;;;;4.78;1.50;;;;;;;25.70;34.32;101025.94;4902118;28;115625;-61
2021/04/22 09:03:31;;;;;;;4.22;1.20;;;;;;;24.34;37.25;101032.34;4901993;28;98180;-60
2021/04/22 09:05:58;;;;;;;6.75;1.20;;;;;;;23.37;38.99;101055.06;4901076;28;126698;-59
2021/04/22 09:08:41;;;;;;;6.53;1.60;;;;;;;22.50;40.28;101056.59;4901892;28;99198;-62
2021/04/22 09:11:07;;;;;;;5.35;1.35;;;;;;;23.95;37.19;101044.88;4902702;28;98090;-60
2021/04/22 09:13:35;;;;;;;5.30;1.20;;;;;;;23.20;38.60;101045.06;4902240;28;111667;-60
2021/04/22 09:16:09;;;;;;;4.57;1.45;;;;;;;23.11;38.87;101045.16;4900855;28;98227;-60
2021/04/22 09:18:44;;;;;;;5.53;1.40;;;;;;;23.33;38.55;101052.19;4902333;28;97884;-63
2021/04/22 09:21:25;;;;;;;4.53;1.33;;;;;;;23.18;39.03;101052.84;4896399;28;104558;-62
2021/04/22 09:24:04;;;;;;;4.63;1.23;;;;;;;24.85;36.24;101029.13;4902649;28;98223;-62
2021/04/22 09:26:41;;;;;;;4.10;1.23;;;;;;;25.25;35.78;101040.13;4902039;28;98583;-63
2021/04/22 09:29:08;;;;;;;4.78;1.17;;;;;;;24.79;36.65;101038.78;4902365;28;97873;-63
2021/04/22 09:31:35;;;;;;;4.45;1.30;;;;;;;24.47;36.93;101042.22;4916434;28;98024;-60
2021/04/22 09:34:22;;;;;;;4.13;1.08;;;;;;;23.62;39.32;101037.50;4902554;28;98723;-63
2021/04/22 09:36:53;;;;;;;6.25;1.27;;;;;;;22.98;40.11;101054.47;4901003;28;128470;-60
2021/04/22 09:39:28;;;;;;;4.97;1.50;;;;;;;22.53;40.00;101044.94;4902634;28;98009;-62
2021/04/22 09:41:58;;;;;;;4.13;1.50;;;;;;;22.28;40.12;101054.16;4900543;28;98119;-62
2021/04/22 09:44:24;;;;;;;5.00;1.42;;;;;;;23.19;38.18;101047.00;4900089;28;98401;-62
2021/04/22 09:47:09;;;;;;;4.95;1.58;;;;;;;27.04;32.30;101041.53;4901945;28;109124;-63
2021/04/22 09:49:55;;;;;;;5.60;1.50;;;;;;;31.00;27.00;101035.06;4903899;28;97872;-60
2021/04/22 09:52:21;;;;;;;4.38;1.30;;;;;;;30.01;29.11;101041.69;4906006;28;97861;-63
2021/04/22 09:54:50;;;;;;;4.18;1.15;;;;;;;29.72;29.96;101037.09;4903787;28;98260;-61
2021/04/22 09:57:27;;;;;;;4.15;1.05;;;;;;;27.66;32.94;101037.56;4906037;28;98055;-63
2021/04/22 09:59:53;;;;;;;4.07;1.10;;;;;;;26.42;35.36;101041.44;4903249;28;97801;-63
2021/04/22 10:02:19;;;;;;;4.22;1.10;;;;;;;25.29;36.37;101029.97;4904480;28;98264;-60
2021/04/22 10:04:48;;;;;;;3.42;1.02;;;;;;;24.71;37.13;101040.53;4919138;28;98085;-63
2021/04/22 10:07:28;;;;;;;5.18;1.30;;;;;;;23.94;37.02;101035.03;4887548;28;98676;-60
2021/04/22 10:10:11;;;;;;;5.25;1.30;;;;;;;23.81;36.86;101036.94;4902885;28;98227;-62
2021/04/22 10:12:37;;;;;;;5.75;1.17;;;;;;;23.81;37.21;101033.41;4888999;28;98036;-63
2021/04/22 10:15:18;;;;;;;3.90;1.17;;;;;;;23.71;37.30;101024.44;4904027;28;127426;-60
2021/04/22 10:18:06;;;;;;;3.78;0.93;;;;;;;22.99;38.74;101023.91;4905397;28;98727;-60
2021/04/22 10:20:36;;;;;;;3.78;1.20;;;;;;;22.29;39.89;101042.84;4904617;28;98080;-60
2021/04/22 10:23:03;;;;;;;4.72;1.13;;;;;;;21.81;40.35;101041.28;4905304;28;97885;-60
2021/04/22 10:25:32;;;;;;;4.15;1.20;;;;;;;21.35;40.87;101050.31;4903847;28;119842;-59
2021/04/22 10:28:14;;;;;;;5.28;1.40;;;;;;;21.14;41.37;101041.09;4904862;28;110125;-60
2021/04/22 10:30:43;;;;;;;5.50;1.58;;;;;;;24.76;35.26;101033.97;4903857;28;114935;-62
2021/04/22 10:33:10;;;;;;;5.57;1.17;;;;;;;24.97;35.25;101029.88;4905665;28;100669;-62
2021/04/22 10:35:38;;;;;;;4.45;1.20;;;;;;;26.31;33.32;101021.84;4904950;28;98309;-61
2021/04/22 10:38:05;;;;;;;4.90;1.40;;;;;;;25.64;35.02;101012.75;4904479;28;97999;-63
2021/04/22 10:40:37;;;;;;;3.47;1.00;;;;;;;24.66;37.34;101029.78;4904080;28;98395;-62
2021/04/22 10:43:04;;;;;;;;;;;;;;;24.46;37.12;101035.09;4887529;28;98021;-63
2021/04/22 10:45:33;;;;;;;4.68;1.30;;;;;;;27.82;31.02;101031.13;4904395;28;98978;-60
2021/04/22 10:47:59;;;;;;;3.60;1.08;;;;;;;27.63;32.10;101029.22;4903521;28;98909;-60
2021/04/22 10:50:31;;;;;;;3.42;1.15;;;;;;;31.50;26.48;101024.03;4903629;28;127518;-63
2021/04/22 10:52:58;;;;;;;3.33;1.05;;;;;;;31.43;27.17;101034.38;4904496;28;111434;-61
2021/04/22 10:55:30;;;;;;;4.00;1.13;;;;;;;28.97;31.43;101039.91;4902568;28;98322;-61
2021/04/22 10:58:18;;;;;;;3.47;1.02;;;;;;;27.57;33.57;101039.78;4904232;28;98781;-64
2021/04/22 11:01:08;;;;;;;3.72;0.88;;;;;;;26.31;35.76;101027.38;4903672;28;97851;-63
2021/04/22 11:03:46;;;;;;;4.03;1.08;;;;;;;29.27;30.37;101014.03;4904668;28;98050;-60
2021/04/22 11:06:17;;;;;;;4.70;1.20;;;;;;;29.63;28.95;101025.50;4904672;28;98497;-60
2021/04/22 11:08:54;;;;;;;5.38;1.20;;;;;;;27.95;32.53;101020.66;4904244;28;115000;-63
2021/04/22 11:11:34;;;;;;;3.13;0.98;;;;;;;27.54;32.93;101020.34;4917539;28;98224;-63
2021/04/22 11:14:14;;;;;;;4.30;1.05;;;;;;;26.63;34.93;101016.25;4904622;28;97872;-63
2021/04/22 11:16:50;;;;;;;3.67;1.00;;;;;;;25.97;35.69;101015.16;4904645;28;98394;-60
2021/04/22 11:19:21;;;;;;;4.80;1.23;;;;;;;27.06;33.65;101014.34;4904240;28;99270;-61
2021/04/22 11:21:58;;;;;;;;;;;;;;;29.36;29.67;100997.91;4905317;28;97979;-63
2021/04/22 11:24:35;;;;;;;3.80;1.30;;;;;;;28.34;32.09;101001.84;4904015;28;98163;-63
2021/04/22 11:27:12;;;;;;;3.90;1.13;;;;;;;27.59;34.00;101014.53;4904470;28;98450;-63